Time;durP1;ratioP1;P1;durP2;ratioP2;P2;SDS_P1;SDS_P2;PMS_P1;PMS_P2;Temp;Humidity;BMP_temperature;BMP_pressure;BME280_temperature;BME280_humidity;BME280_pressure;Samples;Min_cycle;Max_cycle;Signal;HPM_P1;HPM_P2
2022/04/24 00:01:49;;;;;;;;;;;;;;;;;;8343709;28;27936;-72
2022/04/24 00:05:49;;;;;;;;;;;;;;;;;;8341564;28;28034;-73
2022/04/24 00:09:50;;;;;;;;;;;;;;;;;;8349282;28;28293;-73
2022/04/24 00:13:50;;;;;;;;;;;;;;;;;;8342394;28;27111;-72
2022/04/24 00:17:50;;;;;;;;;;;;;;;;;;8346046;28;27840;-72
2022/04/24 00:21:50;;;;;;;;;;;;;;;;;;8345835;28;27386;-72
2022/04/24 00:25:50;;;;;;;;;;;;;;;;;;8341973;28;28173;-72
2022/04/24 00:29:51;;;;;;;;;;;;;;;;;;8342363;28;27789;-73
2022/04/24 00:33:51;;;;;;;;;;;;;;;;;;8339357;28;27482;-73
2022/04/24 00:37:51;;;;;;;;;;;;;;;;;;8345537;28;27513;-73
2022/04/24 00:41:51;;;;;;;;;;;;;;;;;;8345142;28;27665;-73
2022/04/24 00:45:51;;;;;;;;;;;;;;;;;;8342673;28;28007;-73
2022/04/24 00:49:52;;;;;;;;;;;;;;;;;;8350987;28;28380;-73
2022/04/24 00:53:52;;;;;;;;;;;;;;;;;;8344221;28;27157;-73
2022/04/24 00:57:52;;;;;;;;;;;;;;;;;;8343709;28;27146;-73
2022/04/24 01:01:52;;;;;;;;;;;;;;;;;;8345583;28;27469;-73
2022/04/24 01:05:52;;;;;;;;;;;;;;;;;;8346090;28;27955;-73
2022/04/24 01:09:52;;;;;;;;;;;;;;;;;;8341739;28;27500;-73
2022/04/24 01:13:52;;;;;;;;;;;;;;;;;;8343133;28;27541;-73
2022/04/24 01:17:52;;;;;;;;;;;;;;;;;;8349426;28;28197;-73
2022/04/24 01:21:52;;;;;;;;;;;;;;;;;;8349955;28;28192;-73
2022/04/24 01:25:53;;;;;;;;;;;;;;;;;;8344229;28;27804;-73
2022/04/24 01:29:53;;;;;;;;;;;;;;;;;;8341612;28;27418;-73
2022/04/24 01:33:53;;;;;;;;;;;;;;;;;;8339841;28;27771;-73
2022/04/24 01:37:56;;;;;;;;;;;;;;;;;;8344871;28;28162;-73
2022/04/24 01:41:56;;;;;;;;;;;;;;;;;;8348240;28;28361;-73
2022/04/24 01:45:56;;;;;;;;;;;;;;;;;;8338360;28;27637;-72
2022/04/24 01:49:56;;;;;;;;;;;;;;;;;;8343552;28;27331;-72
2022/04/24 01:53:56;;;;;;;;;;;;;;;;;;8345416;28;28010;-73
2022/04/24 01:57:56;;;;;;;;;;;;;;;;;;8343504;28;27315;-73
2022/04/24 02:01:57;;;;;;;;;;;;;;;;;;8341308;28;27926;-73
2022/04/24 02:05:57;;;;;;;;;;;;;;;;;;8342857;28;29433;-73
2022/04/24 02:09:57;;;;;;;;;;;;;;;;;;8343246;28;27198;-73
2022/04/24 02:13:57;;;;;;;;;;;;;;;;;;8338259;28;27791;-73
2022/04/24 02:17:57;;;;;;;;;;;;;;;;;;8341723;28;27526;-73
2022/04/24 02:21:57;;;;;;;;;;;;;;;;;;8346255;28;27467;-73
2022/04/24 02:25:57;;;;;;;;;;;;;;;;;;8346016;28;27206;-73
2022/04/24 02:29:57;;;;;;;;;;;;;;;;;;8340289;28;27409;-73
2022/04/24 02:33:57;;;;;;;;;;;;;;;;;;8343532;28;28101;-73
2022/04/24 02:37:58;;;;;;;;;;;;;;;;;;8338661;28;27902;-73
2022/04/24 02:41:58;;;;;;;;;;;;;;;;;;8346396;28;28410;-73
2022/04/24 02:45:58;;;;;;;;;;;;;;;;;;8343309;28;27392;-73
2022/04/24 02:49:58;;;;;;;;;;;;;;;;;;8358037;28;29271;-73
2022/04/24 02:53:58;;;;;;;;;;;;;;;;;;8345558;28;28690;-73
2022/04/24 02:57:58;;;;;;;;;;;;;;;;;;8339340;28;27622;-73
2022/04/24 03:01:59;;;;;;;;;;;;;;;;;;8341588;28;27319;-73
2022/04/24 03:05:59;;;;;;;;;;;;;;;;;;8341941;28;28097;-73
2022/04/24 03:09:59;;;;;;;;;;;;;;;;;;8346178;28;29212;-73
2022/04/24 03:13:59;;;;;;;;;;;;;;;;;;8339327;28;27771;-73
2022/04/24 03:17:59;;;;;;;;;;;;;;;;;;8345416;28;28435;-73
2022/04/24 03:22:00;;;;;;;;;;;;;;;;;;8349028;28;29155;-73
2022/04/24 03:26:00;;;;;;;;;;;;;;;;;;8349995;28;29075;-73
2022/04/24 03:30:00;;;;;;;;;;;;;;;;;;8350357;28;27564;-73
2022/04/24 03:34:00;;;;;;;;;;;;;;;;;;8346041;28;27352;-73
2022/04/24 03:38:00;;;;;;;;;;;;;;;;;;8355613;28;28295;-73
2022/04/24 03:42:00;;;;;;;;;;;;;;;;;;8351724;28;27661;-73
2022/04/24 03:46:00;;;;;;;;;;;;;;;;;;8347040;28;27741;-73
2022/04/24 03:50:01;;;;;;;;;;;;;;;;;;8352350;28;28372;-73
2022/04/24 03:54:01;;;;;;;;;;;;;;;;;;8340677;28;27441;-73
2022/04/24 03:58:01;;;;;;;;;;;;;;;;;;8351077;28;27517;-73
2022/04/24 04:02:02;;;;;;;;;;;;;;;;;;8349385;28;27508;-73
2022/04/24 04:06:02;;;;;;;;;;;;;;;;;;8344157;28;27435;-73
2022/04/24 04:10:03;;;;;;;;;;;;;;;;;;8343351;28;28387;-73
2022/04/24 04:14:03;;;;;;;;;;;;;;;;;;8342596;28;27408;-73
2022/04/24 04:18:03;;;;;;;;;;;;;;;;;;8342676;28;27479;-73
2022/04/24 04:22:03;;;;;;;;;;;;;;;;;;8350006;28;28468;-73
2022/04/24 04:26:03;;;;;;;;;;;;;;;;;;8343577;28;27599;-73
2022/04/24 04:30:03;;;;;;;;;;;;;;;;;;8346994;28;27681;-73
2022/04/24 04:34:03;;;;;;;;;;;;;;;;;;8342989;28;28109;-73
2022/04/24 04:38:03;;;;;;;;;;;;;;;;;;8344761;28;28011;-73
2022/04/24 04:42:04;;;;;;;;;;;;;;;;;;8350069;28;27378;-72
2022/04/24 04:46:04;;;;;;;;;;;;;;;;;;8343777;28;27413;-73
2022/04/24 04:50:04;;;;;;;;;;;;;;;;;;8351881;28;27369;-73
2022/04/24 04:54:04;;;;;;;;;;;;;;;;;;8341674;28;27614;-73
2022/04/24 04:58:04;;;;;;;;;;;;;;;;;;8355766;28;28475;-73
2022/04/24 05:02:04;;;;;;;;;;;;;;;;;;8348183;28;27393;-73
2022/04/24 05:06:04;;;;;;;;;;;;;;;;;;8346573;28;29920;-73
2022/04/24 05:10:05;;;;;;;;;;;;;;;;;;8345726;28;27863;-73
2022/04/24 05:14:05;;;;;;;;;;;;;;;;;;8344140;28;27480;-73
2022/04/24 05:18:05;;;;;;;;;;;;;;;;;;8345120;28;28144;-73
2022/04/24 05:22:05;;;;;;;;;;;;;;;;;;8351998;28;28302;-73
2022/04/24 05:26:05;;;;;;;;;;;;;;;;;;8340785;28;27547;-73
2022/04/24 05:30:07;;;;;;;;;;;;;;;;;;8346352;28;27401;-73
2022/04/24 05:34:07;;;;;;;;;;;;;;;;;;8344475;28;27882;-73
2022/04/24 05:38:07;;;;;;;;;;;;;;;;;;8341703;28;27675;-73
2022/04/24 05:42:09;;;;;;;;;;;;;;;;;;8348624;28;27143;-73
2022/04/24 05:46:09;;;;;;;;;;;;;;;;;;8346383;28;27917;-74
2022/04/24 05:50:10;;;;;;;;;;;;;;;;;;8345151;28;27325;-73
2022/04/24 05:54:10;;;;;;;;;;;;;;;;;;8344634;28;28291;-73
2022/04/24 05:58:10;;;;;;;;;;;;;;;;;;8343460;28;28297;-74
2022/04/24 06:02:10;;;;;;;;;;;;;;;;;;8340723;28;27575;-74
2022/04/24 06:06:10;;;;;;;;;;;;;;;;;;8343039;28;27170;-73
2022/04/24 06:10:10;;;;;;;;;;;;;;;;;;8349192;28;28366;-73
2022/04/24 06:14:11;;;;;;;;;;;;;;;;;;8338950;28;27768;-73
2022/04/24 06:18:11;;;;;;;;;;;;;;;;;;8348475;28;28638;-73
2022/04/24 06:22:11;;;;;;;;;;;;;;;;;;8348787;28;29313;-72
2022/04/24 06:26:12;;;;;;;;;;;;;;;;;;8343186;28;27400;-73
2022/04/24 06:30:12;;;;;;;;;;;;;;;;;;8341809;28;28992;-73
2022/04/24 06:34:12;;;;;;;;;;;;;;;;;;8343181;28;27371;-72
2022/04/24 06:38:12;;;;;;;;;;;;;;;;;;8345179;28;27696;-73
2022/04/24 06:42:14;;;;;;;;;;;;;;;;;;8346387;28;28405;-73
2022/04/24 06:46:15;;;;;;;;;;;;;;;;;;8339591;28;28080;-72
2022/04/24 06:50:15;;;;;;;;;;;;;;;;;;8365700;28;29438;-73
2022/04/24 06:54:15;;;;;;;;;;;;;;;;;;8345161;28;29462;-73
2022/04/24 06:58:15;;;;;;;;;;;;;;;;;;8343557;28;27795;-73
2022/04/24 07:02:15;;;;;;;;;;;;;;;;;;8350071;28;28173;-73
2022/04/24 07:06:15;;;;;;;;;;;;;;;;;;8344156;28;27988;-73
2022/04/24 07:10:15;;;;;;;;;;;;;;;;;;8350484;28;28867;-73
2022/04/24 07:14:15;;;;;;;;;;;;;;;;;;8342348;28;27782;-73
2022/04/24 07:18:15;;;;;;;;;;;;;;;;;;8349157;28;28749;-73
2022/04/24 07:22:16;;;;;;;;;;;;;;;;;;8347971;28;27429;-73
2022/04/24 07:26:16;;;;;;;;;;;;;;;;;;8344232;28;28333;-73
2022/04/24 07:30:16;;;;;;;;;;;;;;;;;;8347460;28;28452;-73
2022/04/24 07:34:16;;;;;;;;;;;;;;;;;;8343853;28;27142;-73
2022/04/24 07:38:16;;;;;;;;;;;;;;;;;;8343289;28;27504;-73
2022/04/24 07:42:16;;;;;;;;;;;;;;;;;;8350155;28;28080;-73
2022/04/24 07:46:16;;;;;;;;;;;;;;;;;;8347987;28;27362;-73
2022/04/24 07:50:16;;;;;;;;;;;;;;;;;;8345846;28;27507;-73
2022/04/24 07:54:16;;;;;;;;;;;;;;;;;;8348081;28;27217;-73
2022/04/24 07:58:17;;;;;;;;;;;;;;;;;;8344859;28;27735;-73
2022/04/24 08:02:17;;;;;;;;;;;;;;;;;;8350638;28;27597;-73
2022/04/24 08:06:17;;;;;;;;;;;;;;;;;;8350191;28;28232;-73
2022/04/24 08:10:17;;;;;;;;;;;;;;;;;;8347699;28;27241;-73
2022/04/24 08:14:19;;;;;;;;;;;;;;;;;;8343211;28;27307;-73
2022/04/24 08:18:20;;;;;;;;;;;;;;;;;;8341733;28;27413;-73
2022/04/24 08:22:20;;;;;;;;;;;;;;;;;;8340352;28;27641;-73
2022/04/24 08:26:20;;;;;;;;;;;;;;;;;;8343627;28;27987;-73
2022/04/24 08:30:20;;;;;;;;;;;;;;;;;;8346089;28;28497;-74
2022/04/24 08:34:20;;;;;;;;;;;;;;;;;;8345718;28;27347;-73
2022/04/24 08:38:20;;;;;;;;;;;;;;;;;;8343256;28;28235;-73
2022/04/24 08:42:23;;;;;;;;;;;;;;;;;;8348637;28;28189;-73
2022/04/24 08:46:23;;;;;;;;;;;;;;;;;;8346161;28;27459;-73
2022/04/24 08:50:24;;;;;;;;;;;;;;;;;;8349856;28;27164;-74
2022/04/24 08:54:26;;;;;;;;;;;;;;;;;;8348155;28;28176;-73
2022/04/24 08:58:26;;;;;;;;;;;;;;;;;;8345251;28;27599;-73
2022/04/24 09:02:26;;;;;;;;;;;;;;;;;;8340446;27;29437;-73
2022/04/24 09:06:26;;;;;;;;;;;;;;;;;;8310805;28;27278;-72
2022/04/24 09:10:27;;;;;;;;;;;;;;;;;;8316899;28;27475;-74
2022/04/24 09:14:27;;;;;;;;;;;;;;;;;;8318214;28;29435;-73
2022/04/24 09:18:27;;;;;;;;;;;;;;;;;;8313038;28;27714;-73
2022/04/24 09:22:27;;;;;;;;;;;;;;;;;;8345772;28;28476;-73
2022/04/24 09:26:27;;;;;;;;;;;;;;;;;;8318781;28;28581;-74
2022/04/24 09:30:27;;;;;;;;;;;;;;;;;;8320675;28;28217;-73
2022/04/24 09:38:59;;;;;;;;;;;;;;;;;;8472226;27;27926;-74
2022/04/24 09:42:59;;;;;;;;;;;;;;;;;;8419715;27;27500;-74
2022/04/24 09:46:59;;;;;;;;;;;;;;;;;;8418454;27;27585;-74
2022/04/24 09:50:59;;;;;;;;;;;;;;;;;;8445781;27;28366;-74
2022/04/24 09:54:59;;;;;;;;;;;;;;;;;;8444517;27;28554;-74
2022/04/24 09:58:59;;;;;;;;;;;;;;;;;;8413896;27;27407;-75
2022/04/24 10:02:59;;;;;;;;;;;;;;;;;;8422281;27;27603;-74
2022/04/24 10:06:59;;;;;;;;;;;;;;;;;;8414826;27;27659;-73
2022/04/24 10:11:00;;;;;;;;;;;;;;;;;;8415239;27;27534;-75
2022/04/24 10:15:00;;;;;;;;;;;;;;;;;;8416958;27;27508;-75
2022/04/24 10:19:00;;;;;;;;;;;;;;;;;;8446187;27;30095;-74
2022/04/24 10:23:00;;;;;;;;;;;;;;;;;;8445114;27;28713;-73
2022/04/24 10:27:01;;;;;;;;;;;;;;;;;;8413547;27;27164;-73
2022/04/24 10:31:01;;;;;;;;;;;;;;;;;;8448674;27;28549;-75
2022/04/24 10:35:02;;;;;;;;;;;;;;;;;;8415946;27;27387;-74
2022/04/24 10:39:02;;;;;;;;;;;;;;;;;;8418547;27;27252;-74
2022/04/24 10:43:03;;;;;;;;;;;;;;;;;;8448945;27;29298;-74
2022/04/24 10:47:03;;;;;;;;;;;;;;;;;;8413589;27;27713;-74
2022/04/24 10:51:05;;;;;;;;;;;;;;;;;;8422721;27;28424;-74
2022/04/24 10:55:05;;;;;;;;;;;;;;;;;;8388508;28;27793;-73
2022/04/24 10:59:06;;;;;;;;;;;;;;;;;;8391441;28;27930;-74
2022/04/24 11:03:07;;;;;;;;;;;;;;;;;;8392569;28;27378;-74
2022/04/24 11:07:07;;;;;;;;;;;;;;;;;;8391923;28;27607;-74
2022/04/24 11:11:07;;;;;;;;;;;;;;;;;;8425276;27;28646;-74
2022/04/24 11:15:07;;;;;;;;;;;;;;;;;;8395808;27;28368;-74
2022/04/24 11:19:07;;;;;;;;;;;;;;;;;;8395970;28;27674;-75
2022/04/24 11:23:07;;;;;;;;;;;;;;;;;;8396819;28;28187;-75
2022/04/24 11:27:08;;;;;;;;;;;;;;;;;;8396373;28;27210;-75
2022/04/24 11:31:08;;;;;;;;;;;;;;;;;;8394389;28;27263;-75
2022/04/24 11:35:08;;;;;;;;;;;;;;;;;;8394920;28;27602;-74
2022/04/24 11:39:08;;;;;;;;;;;;;;;;;;8397870;28;27117;-74
2022/04/24 11:43:08;;;;;;;;;;;;;;;;;;8398357;28;27912;-74
2022/04/24 11:51:27;;;;;;;;;;;;;;;;;;8400395;28;27487;-75
2022/04/24 11:56:01;;;;;;;;;;;;;;;;;;8395798;28;28020;-76
2022/04/24 11:59:47;;;;;;;;;;;;;;;;;;8393125;28;27326;-75
2022/04/24 12:03:47;;;;;;;;;;;;;;;;;;8419287;27;29417;-74
2022/04/24 12:07:48;;;;;;;;;;;;;;;;;;8391363;28;27414;-74
2022/04/24 12:11:49;;;;;;;;;;;;;;;;;;8391672;28;29113;-75
2022/04/24 12:15:49;;;;;;;;;;;;;;;;;;8386785;28;27220;-75
2022/04/24 12:19:49;;;;;;;;;;;;;;;;;;8393567;28;27207;-74
2022/04/24 12:23:49;;;;;;;;;;;;;;;;;;8392740;28;27137;-74
2022/04/24 12:27:49;;;;;;;;;;;;;;;;;;8387440;28;28401;-74
2022/04/24 12:31:49;;;;;;;;;;;;;;;;;;8387900;28;27599;-75
2022/04/24 12:35:50;;;;;;;;;;;;;;;;;;8382530;28;27627;-75
2022/04/24 12:39:50;;;;;;;;;;;;;;;;;;8390179;28;27459;-75
2022/04/24 12:43:50;;;;;;;;;;;;;;;;;;8390032;28;27455;-74
2022/04/24 12:47:50;;;;;;;;;;;;;;;;;;8389726;28;27557;-74
2022/04/24 12:51:52;;;;;;;;;;;;;;;;;;8388900;28;27340;-75
2022/04/24 12:55:52;;;;;;;;;;;;;;;;;;8391400;28;27885;-74
2022/04/24 12:59:52;;;;;;;;;;;;;;;;;;8386155;28;29363;-75
2022/04/24 13:03:54;;;;;;;;;;;;;;;;;;8390363;28;27458;-75
2022/04/24 13:07:54;;;;;;;;;;;;;;;;;;8391104;28;28498;-75
2022/04/24 13:11:55;;;;;;;;;;;;;;;;;;8390876;28;27184;-75
2022/04/24 13:20:13;;;;;;;;;;;;;;;;;;8392904;28;27405;-73
2022/04/24 13:24:14;;;;;;;;;;;;;;;;;;8389613;28;28681;-74
2022/04/24 13:28:14;;;;;;;;;;;;;;;;;;8424643;27;29679;-74
2022/04/24 13:32:14;;;;;;;;;;;;;;;;;;8389207;28;27290;-74
2022/04/24 13:36:14;;;;;;;;;;;;;;;;;;8388444;28;27524;-74
2022/04/24 13:40:16;;;;;;;;;;;;;;;;;;8392954;28;27191;-74
2022/04/24 13:44:16;;;;;;;;;;;;;;;;;;8387849;28;28364;-75
2022/04/24 13:48:16;;;;;;;;;;;;;;;;;;8386718;28;27968;-75
2022/04/24 13:52:16;;;;;;;;;;;;;;;;;;8391275;28;27184;-75
2022/04/24 13:56:16;;;;;;;;;;;;;;;;;;8416213;27;28512;-75
2022/04/24 14:00:16;;;;;;;;;;;;;;;;;;8392454;28;27416;-75
2022/04/24 14:04:17;;;;;;;;;;;;;;;;;;8390144;28;27187;-74
2022/04/24 14:08:18;;;;;;;;;;;;;;;;;;8419631;27;28161;-74
2022/04/24 14:12:18;;;;;;;;;;;;;;;;;;8388171;28;27928;-74
2022/04/24 14:16:18;;;;;;;;;;;;;;;;;;8383520;28;27665;-75
2022/04/24 14:20:20;;;;;;;;;;;;;;;;;;8387983;28;27152;-74
2022/04/24 14:24:20;;;;;;;;;;;;;;;;;;8397096;27;27430;-75
2022/04/24 14:28:20;;;;;;;;;;;;;;;;;;8397277;28;27465;-74
2022/04/24 14:32:21;;;;;;;;;;;;;;;;;;8393865;28;27685;-75
2022/04/24 14:36:21;;;;;;;;;;;;;;;;;;8390888;27;28458;-74
2022/04/24 14:40:21;;;;;;;;;;;;;;;;;;8396353;28;27580;-75
2022/04/24 14:44:21;;;;;;;;;;;;;;;;;;8395235;28;27492;-75
2022/04/24 14:56:59;;;;;;;;;;;;;;;;;;8397433;28;27316;-75
2022/04/24 15:00:59;;;;;;;;;;;;;;;;;;8389226;28;27102;-75
2022/04/24 15:04:59;;;;;;;;;;;;;;;;;;8423158;27;28702;-74
2022/04/24 15:08:59;;;;;;;;;;;;;;;;;;8395000;28;27513;-74
2022/04/24 15:13:00;;;;;;;;;;;;;;;;;;8396928;28;27545;-75
2022/04/24 15:17:00;;;;;;;;;;;;;;;;;;8386541;28;29299;-75
2022/04/24 15:21:01;;;;;;;;;;;;;;;;;;8394606;28;27925;-75
2022/04/24 15:25:01;;;;;;;;;;;;;;;;;;8394715;28;28370;-75
2022/04/24 15:29:02;;;;;;;;;;;;;;;;;;8397449;28;27387;-75
2022/04/24 15:33:03;;;;;;;;;;;;;;;;;;8398334;27;27356;-75
2022/04/24 15:37:03;;;;;;;;;;;;;;;;;;8393030;28;27507;-75
2022/04/24 15:41:03;;;;;;;;;;;;;;;;;;8393688;28;27450;-75
2022/04/24 15:45:19;;;;;;;;;;;;;;;;;;8420089;27;28475;-75
2022/04/24 15:49:19;;;;;;;;;;;;;;;;;;8395784;28;28552;-74
2022/04/24 15:53:21;;;;;;;;;;;;;;;;;;8394753;28;28367;-75
2022/04/24 15:57:21;;;;;;;;;;;;;;;;;;8389336;28;28222;-74
2022/04/24 16:01:22;;;;;;;;;;;;;;;;;;8394709;28;27721;-74
2022/04/24 16:05:23;;;;;;;;;;;;;;;;;;8396043;28;27619;-75
2022/04/24 16:09:23;;;;;;;;;;;;;;;;;;8392911;28;27910;-75
2022/04/24 16:13:23;;;;;;;;;;;;;;;;;;8390756;28;27153;-75
2022/04/24 16:17:23;;;;;;;;;;;;;;;;;;8389319;28;28466;-74
2022/04/24 16:21:23;;;;;;;;;;;;;;;;;;8395728;28;28248;-74
2022/04/24 16:25:23;;;;;;;;;;;;;;;;;;8391300;28;27927;-74
2022/04/24 16:33:44;;;;;;;;;;;;;;;;;;8388210;28;27719;-74
2022/04/24 16:37:44;;;;;;;;;;;;;;;;;;8417394;27;28338;-74
2022/04/24 16:41:44;;;;;;;;;;;;;;;;;;8387718;28;28464;-74
2022/04/24 16:45:44;;;;;;;;;;;;;;;;;;8415868;27;28435;-73
2022/04/24 16:49:44;;;;;;;;;;;;;;;;;;8386610;28;27583;-74
2022/04/24 17:02:42;;;;;;;;;;;;;;;;;;8317295;28;27476;-74
2022/04/24 17:06:42;;;;;;;;;;;;;;;;;;8348453;28;28398;-74
2022/04/24 17:10:42;;;;;;;;;;;;;;;;;;8423784;27;28495;-74
2022/04/24 17:14:43;;;;;;;;;;;;;;;;;;8387169;28;28524;-75
2022/04/24 17:18:43;;;;;;;;;;;;;;;;;;8389661;28;27303;-74
2022/04/24 17:22:43;;;;;;;;;;;;;;;;;;8392051;28;28782;-74
2022/04/24 17:26:44;;;;;;;;;;;;;;;;;;8387344;28;27560;-74
2022/04/24 17:30:44;;;;;;;;;;;;;;;;;;8393364;28;27961;-74
2022/04/24 17:34:46;;;;;;;;;;;;;;;;;;8389328;28;27139;-74
2022/04/24 17:38:46;;;;;;;;;;;;;;;;;;8388946;28;27521;-74
2022/04/24 17:42:49;;;;;;;;;;;;;;;;;;8421341;27;29171;-73
2022/04/24 17:46:49;;;;;;;;;;;;;;;;;;8391030;27;27222;-74
2022/04/24 17:50:53;;;;;;;;;;;;;;;;;;8394282;28;27924;-74
2022/04/24 17:54:53;;;;;;;;;;;;;;;;;;8387180;28;28557;-74
2022/04/24 17:58:53;;;;;;;;;;;;;;;;;;8398934;28;27118;-74
2022/04/24 18:02:54;;;;;;;;;;;;;;;;;;8405801;28;27343;-74
2022/04/24 18:06:54;;;;;;;;;;;;;;;;;;8424798;27;28323;-74
2022/04/24 18:10:54;;;;;;;;;;;;;;;;;;8399896;28;27312;-74
2022/04/24 18:14:55;;;;;;;;;;;;;;;;;;8396599;28;27390;-74
2022/04/24 18:18:58;;;;;;;;;;;;;;;;;;8397641;28;27164;-74
2022/04/24 18:23:00;;;;;;;;;;;;;;;;;;8399602;28;27242;-74
2022/04/24 18:27:00;;;;;;;;;;;;;;;;;;8392777;28;27353;-74
2022/04/24 18:31:00;;;;;;;;;;;;;;;;;;8392186;28;27192;-73
2022/04/24 18:35:01;;;;;;;;;;;;;;;;;;8388070;28;28206;-74
2022/04/24 18:39:01;;;;;;;;;;;;;;;;;;8417392;27;29673;-74
2022/04/24 18:43:03;;;;;;;;;;;;;;;;;;8392293;28;27508;-74
2022/04/24 18:47:04;;;;;;;;;;;;;;;;;;8386650;28;27356;-74
2022/04/24 18:51:04;;;;;;;;;;;;;;;;;;8395999;28;27685;-74
2022/04/24 18:55:04;;;;;;;;;;;;;;;;;;8383063;28;28036;-74
2022/04/24 18:59:06;;;;;;;;;;;;;;;;;;8386068;28;28666;-74
2022/04/24 19:03:07;;;;;;;;;;;;;;;;;;8391341;28;27593;-74
2022/04/24 19:11:26;;;;;;;;;;;;;;;;;;8396089;28;27948;-74
2022/04/24 19:15:27;;;;;;;;;;;;;;;;;;8418832;27;28255;-73
2022/04/24 19:19:27;;;;;;;;;;;;;;;;;;8419412;27;28641;-73
2022/04/24 19:23:27;;;;;;;;;;;;;;;;;;8387361;28;28005;-74
2022/04/24 19:27:28;;;;;;;;;;;;;;;;;;8382228;28;27836;-73
2022/04/24 19:31:29;;;;;;;;;;;;;;;;;;8391148;28;27363;-74
2022/04/24 19:35:29;;;;;;;;;;;;;;;;;;8415151;27;28766;-74
2022/04/24 19:39:29;;;;;;;;;;;;;;;;;;8386409;28;27872;-74
2022/04/24 19:43:29;;;;;;;;;;;;;;;;;;8386701;28;29901;-73
2022/04/24 19:47:31;;;;;;;;;;;;;;;;;;8384459;28;28276;-73
2022/04/24 19:51:31;;;;;;;;;;;;;;;;;;8389278;28;28145;-74
2022/04/24 19:55:31;;;;;;;;;;;;;;;;;;8382286;28;27476;-73
2022/04/24 19:59:32;;;;;;;;;;;;;;;;;;8391059;28;27184;-73
2022/04/24 20:03:32;;;;;;;;;;;;;;;;;;8391622;28;27324;-73
2022/04/24 20:07:32;;;;;;;;;;;;;;;;;;8388208;28;27542;-74
2022/04/24 20:11:32;;;;;;;;;;;;;;;;;;8389857;28;28505;-74
2022/04/24 20:15:33;;;;;;;;;;;;;;;;;;8385893;28;28282;-74
2022/04/24 20:19:33;;;;;;;;;;;;;;;;;;8427895;27;28882;-73
2022/04/24 20:23:33;;;;;;;;;;;;;;;;;;8422648;27;28437;-73
2022/04/24 20:27:33;;;;;;;;;;;;;;;;;;8389885;28;27474;-74
2022/04/24 20:31:33;;;;;;;;;;;;;;;;;;8392216;28;28038;-73
2022/04/24 20:35:33;;;;;;;;;;;;;;;;;;8386320;28;27993;-74
2022/04/24 20:39:53;;;;;;;;;;;;;;;;;;8390532;28;28473;-74
2022/04/24 20:43:54;;;;;;;;;;;;;;;;;;8422045;27;28679;-74
2022/04/24 20:47:54;;;;;;;;;;;;;;;;;;8422453;27;28155;-73
2022/04/24 20:51:54;;;;;;;;;;;;;;;;;;8390181;28;27570;-73
2022/04/24 20:55:54;;;;;;;;;;;;;;;;;;8380354;28;28206;-74
2022/04/24 20:59:54;;;;;;;;;;;;;;;;;;8396273;28;28710;-73
2022/04/24 21:03:54;;;;;;;;;;;;;;;;;;8418185;27;28709;-74
2022/04/24 21:07:54;;;;;;;;;;;;;;;;;;8383787;28;27376;-73
2022/04/24 21:11:54;;;;;;;;;;;;;;;;;;8388976;28;28467;-73
2022/04/24 21:15:55;;;;;;;;;;;;;;;;;;8406390;27;29527;-73
2022/04/24 21:19:55;;;;;;;;;;;;;;;;;;8382914;28;29054;-73
2022/04/24 21:23:55;;;;;;;;;;;;;;;;;;8381427;28;28357;-73
2022/04/24 21:27:57;;;;;;;;;;;;;;;;;;8388569;28;27504;-73
2022/04/24 21:31:57;;;;;;;;;;;;;;;;;;8392262;27;27331;-73
2022/04/24 21:35:57;;;;;;;;;;;;;;;;;;8412466;27;28722;-73
2022/04/24 21:39:57;;;;;;;;;;;;;;;;;;8390248;28;27466;-73
2022/04/24 21:43:57;;;;;;;;;;;;;;;;;;8383381;28;28114;-73
2022/04/24 21:47:57;;;;;;;;;;;;;;;;;;8384512;28;29607;-73
2022/04/24 21:51:58;;;;;;;;;;;;;;;;;;8389866;28;27543;-73
2022/04/24 21:55:58;;;;;;;;;;;;;;;;;;8412107;27;28513;-73
2022/04/24 21:59:58;;;;;;;;;;;;;;;;;;8422286;27;28093;-73
2022/04/24 22:08:17;;;;;;;;;;;;;;;;;;8387740;28;27496;-73
2022/04/24 22:12:17;;;;;;;;;;;;;;;;;;8392421;28;27307;-73
2022/04/24 22:16:17;;;;;;;;;;;;;;;;;;8382645;28;27455;-73
2022/04/24 22:20:17;;;;;;;;;;;;;;;;;;8418541;27;28477;-73
2022/04/24 22:24:30;;;;;;;;;;;;;;;;;;8384092;28;28354;-73
2022/04/24 22:28:30;;;;;;;;;;;;;;;;;;8415988;27;28427;-73
2022/04/24 22:32:30;;;;;;;;;;;;;;;;;;8389192;28;27075;-73
2022/04/24 22:36:30;;;;;;;;;;;;;;;;;;8385748;27;28034;-73
2022/04/24 22:40:30;;;;;;;;;;;;;;;;;;8421987;27;28530;-73
2022/04/24 22:44:30;;;;;;;;;;;;;;;;;;8387422;28;28583;-73
2022/04/24 22:48:30;;;;;;;;;;;;;;;;;;8400034;28;28068;-73
2022/04/24 22:52:31;;;;;;;;;;;;;;;;;;8429911;27;28454;-73
2022/04/24 22:56:31;;;;;;;;;;;;;;;;;;8393511;28;28328;-73
2022/04/24 23:00:31;;;;;;;;;;;;;;;;;;8429352;27;29073;-73
2022/04/24 23:04:32;;;;;;;;;;;;;;;;;;8392221;28;27235;-73
2022/04/24 23:08:32;;;;;;;;;;;;;;;;;;8396193;28;27897;-73
2022/04/24 23:12:32;;;;;;;;;;;;;;;;;;8395591;28;27431;-73
2022/04/24 23:16:32;;;;;;;;;;;;;;;;;;8416874;27;28146;-73
2022/04/24 23:20:32;;;;;;;;;;;;;;;;;;8400180;28;27470;-73
2022/04/24 23:24:32;;;;;;;;;;;;;;;;;;8416651;27;28805;-73
2022/04/24 23:28:35;;;;;;;;;;;;;;;;;;8398834;28;27399;-73
2022/04/24 23:32:35;;;;;;;;;;;;;;;;;;8399444;28;28687;-73
2022/04/24 23:36:35;;;;;;;;;;;;;;;;;;8419500;27;28331;-73
2022/04/24 23:40:35;;;;;;;;;;;;;;;;;;8398884;27;27177;-73
2022/04/24 23:44:36;;;;;;;;;;;;;;;;;;8425409;27;28870;-73
2022/04/24 23:48:38;;;;;;;;;;;;;;;;;;8395847;28;27142;-73
2022/04/24 23:52:38;;;;;;;;;;;;;;;;;;8395623;28;27417;-73
2022/04/24 23:56:39;;;;;;;;;;;;;;;;;;8395073;27;27241;-72
